sensor_id;sensor_type;location;lat;lon;timestamp;P1;durP1;ratioP1;P2;durP2;ratioP2
26750;SDS011;14345;48.272;25.926;2023-01-25T00:02:07;11.25;;;6.88;;
26750;SDS011;14345;48.272;25.926;2023-01-25T00:04:34;9.95;;;6.85;;
26750;SDS011;14345;48.272;25.926;2023-01-25T00:07:00;10.25;;;7.70;;
26750;SDS011;14345;48.272;25.926;2023-01-25T00:09:26;12.73;;;8.85;;
26750;SDS011;14345;48.272;25.926;2023-01-25T00:11:52;13.00;;;8.23;;
26750;SDS011;14345;48.272;25.926;2023-01-25T00:14:20;14.90;;;10.80;;
26750;SDS011;14345;48.272;25.926;2023-01-25T00:16:47;17.55;;;11.48;;
26750;SDS011;14345;48.272;25.926;2023-01-25T00:19:13;16.85;;;11.65;;
26750;SDS011;14345;48.272;25.926;2023-01-25T00:21:39;13.23;;;9.60;;
26750;SDS011;14345;48.272;25.926;2023-01-25T00:24:05;14.18;;;9.90;;
26750;SDS011;14345;48.272;25.926;2023-01-25T00:26:32;18.90;;;13.43;;
26750;SDS011;14345;48.272;25.926;2023-01-25T00:28:59;21.60;;;14.43;;
26750;SDS011;14345;48.272;25.926;2023-01-25T00:31:36;20.15;;;14.48;;
26750;SDS011;14345;48.272;25.926;2023-01-25T00:36:48;24.08;;;16.65;;
26750;SDS011;14345;48.272;25.926;2023-01-25T00:39:15;25.52;;;17.35;;
26750;SDS011;14345;48.272;25.926;2023-01-25T00:41:41;23.02;;;15.35;;
26750;SDS011;14345;48.272;25.926;2023-01-25T00:44:07;24.00;;;15.65;;
26750;SDS011;14345;48.272;25.926;2023-01-25T00:46:33;24.58;;;15.93;;
26750;SDS011;14345;48.272;25.926;2023-01-25T00:48:59;21.98;;;15.18;;
26750;SDS011;14345;48.272;25.926;2023-01-25T00:51:25;21.35;;;14.98;;
26750;SDS011;14345;48.272;25.926;2023-01-25T00:53:52;22.33;;;14.95;;
26750;SDS011;14345;48.272;25.926;2023-01-25T00:56:18;20.80;;;13.68;;
26750;SDS011;14345;48.272;25.926;2023-01-25T00:58:44;19.73;;;14.27;;
26750;SDS011;14345;48.272;25.926;2023-01-25T01:01:10;19.48;;;13.10;;
26750;SDS011;14345;48.272;25.926;2023-01-25T01:03:37;18.23;;;12.77;;
26750;SDS011;14345;48.272;25.926;2023-01-25T01:06:04;18.40;;;12.77;;
26750;SDS011;14345;48.272;25.926;2023-01-25T01:08:33;17.88;;;12.52;;
26750;SDS011;14345;48.272;25.926;2023-01-25T01:11:02;18.05;;;12.82;;
26750;SDS011;14345;48.272;25.926;2023-01-25T01:13:29;18.23;;;12.60;;
26750;SDS011;14345;48.272;25.926;2023-01-25T04:50:12;19.08;;;14.05;;
26750;SDS011;14345;48.272;25.926;2023-01-25T04:52:38;20.80;;;14.63;;
26750;SDS011;14345;48.272;25.926;2023-01-25T04:55:04;23.95;;;15.73;;
26750;SDS011;14345;48.272;25.926;2023-01-25T04:57:30;20.25;;;14.18;;
26750;SDS011;14345;48.272;25.926;2023-01-25T04:59:56;24.10;;;15.52;;
26750;SDS011;14345;48.272;25.926;2023-01-25T05:02:22;20.98;;;13.98;;
26750;SDS011;14345;48.272;25.926;2023-01-25T05:04:48;20.40;;;13.93;;
26750;SDS011;14345;48.272;25.926;2023-01-25T05:07:14;20.00;;;14.23;;
26750;SDS011;14345;48.272;25.926;2023-01-25T05:09:40;25.80;;;15.63;;
26750;SDS011;14345;48.272;25.926;2023-01-25T05:12:06;21.70;;;14.60;;
26750;SDS011;14345;48.272;25.926;2023-01-25T05:14:36;23.08;;;13.75;;
26750;SDS011;14345;48.272;25.926;2023-01-25T05:17:02;24.05;;;14.82;;
26750;SDS011;14345;48.272;25.926;2023-01-25T05:19:28;22.98;;;14.82;;
26750;SDS011;14345;48.272;25.926;2023-01-25T05:21:54;30.23;;;18.33;;
26750;SDS011;14345;48.272;25.926;2023-01-25T05:24:27;27.83;;;17.42;;
26750;SDS011;14345;48.272;25.926;2023-01-25T05:26:54;26.45;;;16.38;;
26750;SDS011;14345;48.272;25.926;2023-01-25T05:31:53;21.30;;;13.70;;
26750;SDS011;14345;48.272;25.926;2023-01-25T05:34:19;21.80;;;14.43;;
26750;SDS011;14345;48.272;25.926;2023-01-25T05:36:45;22.05;;;14.25;;
26750;SDS011;14345;48.272;25.926;2023-01-25T05:39:11;19.38;;;12.70;;
26750;SDS011;14345;48.272;25.926;2023-01-25T05:41:37;22.60;;;13.77;;
26750;SDS011;14345;48.272;25.926;2023-01-25T05:44:03;20.00;;;13.13;;
26750;SDS011;14345;48.272;25.926;2023-01-25T05:46:29;22.42;;;14.57;;
26750;SDS011;14345;48.272;25.926;2023-01-25T05:48:55;23.48;;;15.38;;
26750;SDS011;14345;48.272;25.926;2023-01-25T05:51:21;20.83;;;14.88;;
26750;SDS011;14345;48.272;25.926;2023-01-25T05:53:48;24.27;;;15.65;;
26750;SDS011;14345;48.272;25.926;2023-01-25T05:56:14;22.67;;;15.32;;
26750;SDS011;14345;48.272;25.926;2023-01-25T05:58:40;22.35;;;14.57;;
26750;SDS011;14345;48.272;25.926;2023-01-25T06:01:06;25.73;;;16.35;;
26750;SDS011;14345;48.272;25.926;2023-01-25T06:03:32;24.33;;;16.27;;
26750;SDS011;14345;48.272;25.926;2023-01-25T09:34:51;18.50;;;12.40;;
26750;SDS011;14345;48.272;25.926;2023-01-25T09:37:17;20.60;;;13.40;;
26750;SDS011;14345;48.272;25.926;2023-01-25T09:39:44;21.88;;;13.60;;
26750;SDS011;14345;48.272;25.926;2023-01-25T09:47:26;20.98;;;14.35;;
26750;SDS011;14345;48.272;25.926;2023-01-25T09:55:27;24.75;;;16.05;;
26750;SDS011;14345;48.272;25.926;2023-01-25T09:57:54;26.98;;;16.70;;
26750;SDS011;14345;48.272;25.926;2023-01-25T10:00:43;25.15;;;16.80;;
26750;SDS011;14345;48.272;25.926;2023-01-25T10:05:44;22.63;;;15.35;;
26750;SDS011;14345;48.272;25.926;2023-01-25T10:10:39;22.38;;;15.00;;
26750;SDS011;14345;48.272;25.926;2023-01-25T10:13:13;20.35;;;13.98;;
26750;SDS011;14345;48.272;25.926;2023-01-25T10:15:42;20.60;;;14.60;;
26750;SDS011;14345;48.272;25.926;2023-01-25T10:20:54;19.80;;;12.60;;
26750;SDS011;14345;48.272;25.926;2023-01-25T10:25:58;21.73;;;13.23;;
26750;SDS011;14345;48.272;25.926;2023-01-25T10:31:00;23.23;;;14.10;;
26750;SDS011;14345;48.272;25.926;2023-01-25T10:33:28;23.00;;;15.55;;
26750;SDS011;14345;48.272;25.926;2023-01-25T10:35:56;20.80;;;14.25;;
26750;SDS011;14345;48.272;25.926;2023-01-25T10:38:28;24.30;;;15.88;;
26750;SDS011;14345;48.272;25.926;2023-01-25T10:40:59;19.88;;;13.60;;
26750;SDS011;14345;48.272;25.926;2023-01-25T10:43:26;18.63;;;12.88;;
26750;SDS011;14345;48.272;25.926;2023-01-25T10:45:56;21.35;;;13.15;;
26750;SDS011;14345;48.272;25.926;2023-01-25T10:48:23;17.83;;;12.73;;
26750;SDS011;14345;48.272;25.926;2023-01-25T10:50:54;17.67;;;11.35;;
26750;SDS011;14345;48.272;25.926;2023-01-25T10:56:11;17.48;;;11.77;;
26750;SDS011;14345;48.272;25.926;2023-01-25T10:58:44;22.23;;;14.30;;
26750;SDS011;14345;48.272;25.926;2023-01-25T11:01:12;20.77;;;13.77;;
26750;SDS011;14345;48.272;25.926;2023-01-25T11:03:48;24.00;;;14.13;;
26750;SDS011;14345;48.272;25.926;2023-01-25T11:06:14;24.35;;;14.35;;
26750;SDS011;14345;48.272;25.926;2023-01-25T11:08:52;21.45;;;13.15;;
26750;SDS011;14345;48.272;25.926;2023-01-25T11:11:23;19.63;;;12.57;;
26750;SDS011;14345;48.272;25.926;2023-01-25T11:13:49;17.17;;;11.25;;
26750;SDS011;14345;48.272;25.926;2023-01-25T11:18:51;19.98;;;12.35;;
26750;SDS011;14345;48.272;25.926;2023-01-25T11:21:19;23.30;;;14.18;;
26750;SDS011;14345;48.272;25.926;2023-01-25T11:26:22;21.77;;;14.88;;
26750;SDS011;14345;48.272;25.926;2023-01-25T11:28:48;20.90;;;12.95;;
26750;SDS011;14345;48.272;25.926;2023-01-25T11:31:20;16.85;;;11.10;;
26750;SDS011;14345;48.272;25.926;2023-01-25T11:33:47;14.63;;;9.82;;
26750;SDS011;14345;48.272;25.926;2023-01-25T11:41:26;15.30;;;10.88;;
26750;SDS011;14345;48.272;25.926;2023-01-25T11:51:40;18.73;;;12.13;;
26750;SDS011;14345;48.272;25.926;2023-01-25T16:09:40;19.77;;;11.98;;
26750;SDS011;14345;48.272;25.926;2023-01-25T16:12:07;22.77;;;13.15;;
26750;SDS011;14345;48.272;25.926;2023-01-25T16:14:33;22.10;;;12.55;;
26750;SDS011;14345;48.272;25.926;2023-01-25T16:17:00;18.58;;;11.50;;
26750;SDS011;14345;48.272;25.926;2023-01-25T16:19:27;17.73;;;11.13;;
26750;SDS011;14345;48.272;25.926;2023-01-25T16:21:54;16.70;;;10.95;;
26750;SDS011;14345;48.272;25.926;2023-01-25T16:24:20;18.88;;;11.82;;
26750;SDS011;14345;48.272;25.926;2023-01-25T16:29:15;17.58;;;11.65;;
26750;SDS011;14345;48.272;25.926;2023-01-25T16:31:41;17.88;;;11.18;;
26750;SDS011;14345;48.272;25.926;2023-01-25T16:34:07;19.20;;;12.18;;
26750;SDS011;14345;48.272;25.926;2023-01-25T16:36:33;18.27;;;11.65;;
26750;SDS011;14345;48.272;25.926;2023-01-25T16:39:04;15.57;;;10.43;;
26750;SDS011;14345;48.272;25.926;2023-01-25T16:41:31;15.23;;;10.85;;
26750;SDS011;14345;48.272;25.926;2023-01-25T16:43:57;18.45;;;11.68;;
26750;SDS011;14345;48.272;25.926;2023-01-25T16:46:23;21.65;;;13.52;;
26750;SDS011;14345;48.272;25.926;2023-01-25T16:48:50;19.38;;;12.32;;
26750;SDS011;14345;48.272;25.926;2023-01-25T16:51:21;20.90;;;11.35;;
26750;SDS011;14345;48.272;25.926;2023-01-25T16:53:47;19.55;;;11.65;;
26750;SDS011;14345;48.272;25.926;2023-01-25T16:56:18;18.70;;;10.88;;
26750;SDS011;14345;48.272;25.926;2023-01-25T16:58:44;17.58;;;11.60;;
26750;SDS011;14345;48.272;25.926;2023-01-25T17:01:10;19.73;;;12.02;;
26750;SDS011;14345;48.272;25.926;2023-01-25T17:03:37;19.40;;;12.10;;
26750;SDS011;14345;48.272;25.926;2023-01-25T17:06:03;16.45;;;10.95;;
26750;SDS011;14345;48.272;25.926;2023-01-25T17:08:30;23.35;;;13.50;;
26750;SDS011;14345;48.272;25.926;2023-01-25T17:10:56;19.73;;;11.45;;
26750;SDS011;14345;48.272;25.926;2023-01-25T17:13:27;21.55;;;11.90;;
26750;SDS011;14345;48.272;25.926;2023-01-25T17:15:54;21.98;;;13.68;;
26750;SDS011;14345;48.272;25.926;2023-01-25T17:18:20;18.15;;;12.35;;
26750;SDS011;14345;48.272;25.926;2023-01-25T17:20:54;19.73;;;11.80;;
26750;SDS011;14345;48.272;25.926;2023-01-25T17:23:21;20.65;;;12.10;;
26750;SDS011;14345;48.272;25.926;2023-01-25T17:25:47;19.15;;;12.02;;
26750;SDS011;14345;48.272;25.926;2023-01-25T17:28:14;19.25;;;12.55;;
26750;SDS011;14345;48.272;25.926;2023-01-25T17:30:40;18.90;;;12.23;;
26750;SDS011;14345;48.272;25.926;2023-01-25T17:33:06;17.13;;;11.45;;
26750;SDS011;14345;48.272;25.926;2023-01-25T17:35:36;19.30;;;11.43;;
26750;SDS011;14345;48.272;25.926;2023-01-25T17:38:02;20.80;;;11.88;;
26750;SDS011;14345;48.272;25.926;2023-01-25T17:40:28;16.58;;;10.75;;
26750;SDS011;14345;48.272;25.926;2023-01-25T17:42:54;16.73;;;10.80;;
26750;SDS011;14345;48.272;25.926;2023-01-25T17:45:20;20.27;;;12.43;;
26750;SDS011;14345;48.272;25.926;2023-01-25T17:47:46;19.40;;;11.93;;
26750;SDS011;14345;48.272;25.926;2023-01-25T17:50:12;17.80;;;11.05;;
26750;SDS011;14345;48.272;25.926;2023-01-25T17:52:38;18.25;;;11.75;;
26750;SDS011;14345;48.272;25.926;2023-01-25T17:55:05;20.60;;;12.07;;
26750;SDS011;14345;48.272;25.926;2023-01-25T21:53:08;42.97;;;25.88;;
26750;SDS011;14345;48.272;25.926;2023-01-25T21:55:34;42.33;;;25.33;;
26750;SDS011;14345;48.272;25.926;2023-01-25T21:58:00;39.92;;;24.35;;
26750;SDS011;14345;48.272;25.926;2023-01-25T22:00:26;39.88;;;25.17;;
26750;SDS011;14345;48.272;25.926;2023-01-25T22:02:52;39.63;;;25.33;;
26750;SDS011;14345;48.272;25.926;2023-01-25T22:05:18;44.30;;;26.70;;
26750;SDS011;14345;48.272;25.926;2023-01-25T22:07:44;42.63;;;26.58;;
26750;SDS011;14345;48.272;25.926;2023-01-25T22:10:10;40.75;;;25.08;;
26750;SDS011;14345;48.272;25.926;2023-01-25T22:12:36;40.70;;;24.63;;
26750;SDS011;14345;48.272;25.926;2023-01-25T22:15:03;45.78;;;27.73;;
26750;SDS011;14345;48.272;25.926;2023-01-25T22:17:29;42.97;;;27.23;;
26750;SDS011;14345;48.272;25.926;2023-01-25T22:19:55;48.22;;;28.15;;
26750;SDS011;14345;48.272;25.926;2023-01-25T22:22:21;44.58;;;27.08;;
26750;SDS011;14345;48.272;25.926;2023-01-25T22:24:47;40.08;;;25.60;;
26750;SDS011;14345;48.272;25.926;2023-01-25T22:29:41;43.10;;;26.27;;
26750;SDS011;14345;48.272;25.926;2023-01-25T22:32:07;48.15;;;27.02;;
26750;SDS011;14345;48.272;25.926;2023-01-25T22:34:33;45.05;;;27.35;;
26750;SDS011;14345;48.272;25.926;2023-01-25T22:37:00;42.03;;;25.85;;
26750;SDS011;14345;48.272;25.926;2023-01-25T22:39:26;36.50;;;23.40;;
26750;SDS011;14345;48.272;25.926;2023-01-25T22:41:52;44.28;;;25.25;;
26750;SDS011;14345;48.272;25.926;2023-01-25T22:44:18;40.78;;;24.85;;
26750;SDS011;14345;48.272;25.926;2023-01-25T22:46:44;36.97;;;23.90;;
26750;SDS011;14345;48.272;25.926;2023-01-25T22:49:10;38.55;;;24.65;;
26750;SDS011;14345;48.272;25.926;2023-01-25T22:51:36;39.92;;;24.75;;
26750;SDS011;14345;48.272;25.926;2023-01-25T22:54:02;40.95;;;23.92;;
26750;SDS011;14345;48.272;25.926;2023-01-25T22:56:29;38.92;;;24.00;;
26750;SDS011;14345;48.272;25.926;2023-01-25T22:58:56;36.78;;;22.23;;
26750;SDS011;14345;48.272;25.926;2023-01-25T23:01:23;37.13;;;22.58;;
26750;SDS011;14345;48.272;25.926;2023-01-25T23:03:49;34.50;;;22.23;;
